createdAt,value
2023-02-13T00:03:46.381Z,78.92
2023-02-13T00:08:47.945Z,78.16
2023-02-13T00:13:49.469Z,78.83
2023-02-13T00:18:51.796Z,78.98
2023-02-13T00:23:53.797Z,79.20
2023-02-13T00:28:57.133Z,79.45
2023-02-13T00:33:58.629Z,79.53
2023-02-13T00:39:00.167Z,79.76
2023-02-13T00:44:01.715Z,79.52
2023-02-13T00:49:04.004Z,80.12
2023-02-13T00:54:05.658Z,80.83
2023-02-13T00:59:07.232Z,79.99
2023-02-13T01:04:08.937Z,80.01
2023-02-13T01:09:10.836Z,80.09
2023-02-13T01:14:12.387Z,79.77
2023-02-13T01:19:14.106Z,80.21
2023-02-13T01:24:15.646Z,80.22
2023-02-13T01:29:17.147Z,79.61
2023-02-13T01:34:18.657Z,80.15
2023-02-13T01:39:20.192Z,80.40
2023-02-13T01:44:48.968Z,79.94
2023-02-13T01:49:56.531Z,80.33
2023-02-13T01:54:58.117Z,80.65
2023-02-13T02:00:12.964Z,80.52
2023-02-13T02:05:17.017Z,80.28
2023-02-13T02:10:20.733Z,80.03
2023-02-13T02:15:22.713Z,80.65
2023-02-13T02:20:54.934Z,80.71
2023-02-13T02:26:08.759Z,80.04
2023-02-13T02:32:03.719Z,80.00
2023-02-13T02:37:11.379Z,80.63
2023-02-13T02:42:30.154Z,80.67
2023-02-13T02:48:10.362Z,80.26
2023-02-13T02:53:17.824Z,80.95
2023-02-13T02:58:47.742Z,80.80
2023-02-13T03:04:07.914Z,80.84
2023-02-13T03:09:35.700Z,80.55
2023-02-13T03:14:37.859Z,80.91
2023-02-13T03:20:21.753Z,80.56
2023-02-13T03:26:02.346Z,80.17
2023-02-13T03:31:25.568Z,80.70
2023-02-13T03:36:57.707Z,80.17
2023-02-13T03:42:06.266Z,80.22
2023-02-13T03:47:10.805Z,80.46
2023-02-13T03:52:22.578Z,80.19
2023-02-13T03:57:43.801Z,79.85
2023-02-13T04:03:09.508Z,79.80
2023-02-13T04:08:11.860Z,80.17
2023-02-13T04:13:23.140Z,80.10
2023-02-13T04:18:31.077Z,79.84
2023-02-13T04:23:32.874Z,79.72
2023-02-13T04:28:34.442Z,80.10
2023-02-13T04:33:36.074Z,79.72
2023-02-13T04:38:37.617Z,79.62
2023-02-13T04:43:39.177Z,79.63
2023-02-13T04:48:40.718Z,79.73
2023-02-13T04:53:42.185Z,79.77
2023-02-13T04:58:43.736Z,79.77
2023-02-13T05:03:45.612Z,79.66
2023-02-13T05:08:47.147Z,80.01
2023-02-13T05:13:48.714Z,79.78
2023-02-13T05:18:50.255Z,79.66
2023-02-13T05:23:51.855Z,80.03
2023-02-13T05:29:26.071Z,80.02
2023-02-13T05:34:28.628Z,79.87
2023-02-13T05:39:30.201Z,79.23
2023-02-13T05:44:32.048Z,79.41
2023-02-13T05:49:33.537Z,79.59
2023-02-13T05:54:35.121Z,79.42
2023-02-13T05:59:36.609Z,79.08
2023-02-13T06:04:38.121Z,78.94
2023-02-13T06:09:39.601Z,79.24
2023-02-13T06:14:41.108Z,79.39
2023-02-13T06:19:42.611Z,79.30
2023-02-13T06:24:44.153Z,78.85
2023-02-13T06:29:45.968Z,79.03
2023-02-13T06:34:48.141Z,79.19
2023-02-13T06:39:49.642Z,78.50
2023-02-13T06:44:51.217Z,78.29
2023-02-13T06:49:52.754Z,78.31
2023-02-13T06:54:54.287Z,78.46
2023-02-13T06:59:55.863Z,78.04
2023-02-13T07:04:57.415Z,77.64
2023-02-13T07:10:00.146Z,77.78
2023-02-13T07:15:01.870Z,77.69
2023-02-13T07:20:04.969Z,77.81
2023-02-13T07:25:07.238Z,78.23
2023-02-13T07:30:09.616Z,77.91
2023-02-13T07:35:11.161Z,77.20
2023-02-13T07:40:12.864Z,77.10
2023-02-13T07:45:16.127Z,76.85
2023-02-13T07:50:17.953Z,77.30
2023-02-13T07:55:19.700Z,76.69
2023-02-13T08:00:22.697Z,76.44
2023-02-13T08:05:24.205Z,76.00
2023-02-13T08:11:04.229Z,75.47
2023-02-13T08:16:05.867Z,74.53
2023-02-13T08:21:07.485Z,74.15
2023-02-13T08:26:09.031Z,74.11
2023-02-13T08:31:12.262Z,74.35
2023-02-13T08:36:14.011Z,74.33
2023-02-13T08:46:24.404Z,74.17
2023-02-13T08:51:26.136Z,73.04
2023-02-13T08:56:27.644Z,73.26
2023-02-13T09:01:29.349Z,72.59
2023-02-13T09:06:31.107Z,71.40
2023-02-13T09:11:32.628Z,71.48
2023-02-13T09:16:34.290Z,70.45
2023-02-13T09:21:35.902Z,70.21
2023-02-13T09:26:37.456Z,70.54
2023-02-13T09:31:39.121Z,69.41
2023-02-13T09:36:40.789Z,69.73
2023-02-13T09:41:45.419Z,69.02
2023-02-13T09:46:47.252Z,68.11
2023-02-13T09:51:56.025Z,67.56
2023-02-13T09:57:16.880Z,67.71
2023-02-13T10:02:59.504Z,68.66
2023-02-13T10:08:10.126Z,69.56
2023-02-13T10:13:31.314Z,69.64
2023-02-13T10:18:43.417Z,70.03
2023-02-13T10:23:57.229Z,70.61
2023-02-13T10:29:22.882Z,70.10
2023-02-13T10:34:31.113Z,69.71
2023-02-13T10:39:32.627Z,69.33
2023-02-13T10:45:10.164Z,69.90
2023-02-13T10:50:24.948Z,69.81
2023-02-13T10:56:00.599Z,69.86
2023-02-13T11:01:21.306Z,70.45
2023-02-13T11:06:22.943Z,70.40
2023-02-13T11:11:51.026Z,70.61
2023-02-13T11:17:02.932Z,71.32
2023-02-13T11:22:36.801Z,72.31
2023-02-13T11:27:39.856Z,72.60
2023-02-13T11:32:41.441Z,72.77
2023-02-13T11:37:42.947Z,71.87
2023-02-13T11:42:52.329Z,72.67
2023-02-13T11:47:56.892Z,73.69
2023-02-13T11:53:06.243Z,73.66
2023-02-13T11:58:10.857Z,73.39
2023-02-13T12:03:21.733Z,72.54
2023-02-13T12:08:24.147Z,71.87
2023-02-13T12:13:35.603Z,72.52
2023-02-13T12:18:42.229Z,72.25
2023-02-13T12:24:02.977Z,72.23
2023-02-13T12:29:16.993Z,72.18
2023-02-13T12:34:37.559Z,71.78
2023-02-13T12:39:47.599Z,71.84
2023-02-13T12:45:02.562Z,71.20
2023-02-13T12:50:25.375Z,71.23
2023-02-13T12:55:48.500Z,71.09
2023-02-13T13:01:07.627Z,71.15
2023-02-13T13:06:39.272Z,71.50
2023-02-13T13:11:51.621Z,71.05
2023-02-13T13:17:04.362Z,70.06
2023-02-13T13:22:18.061Z,70.10
2023-02-13T13:27:25.256Z,70.31
2023-02-13T13:32:29.590Z,69.49
2023-02-13T13:38:03.114Z,69.16
2023-02-13T13:43:32.767Z,68.10
2023-02-13T13:49:00.514Z,68.68
2023-02-13T13:54:07.798Z,68.13
2023-02-13T13:59:18.406Z,68.24
2023-02-13T14:04:32.033Z,68.74
2023-02-13T14:09:39.849Z,69.25
2023-02-13T14:14:45.815Z,69.63
2023-02-13T14:19:52.975Z,69.61
2023-02-13T14:24:57.154Z,69.54
2023-02-13T14:30:00.154Z,69.96
2023-02-13T14:35:18.326Z,70.33
2023-02-13T14:40:20.009Z,70.17
2023-02-13T14:45:27.351Z,70.19
2023-02-13T14:50:38.022Z,70.34
2023-02-13T14:55:46.450Z,70.44
2023-02-13T15:01:24.911Z,70.44
2023-02-13T15:06:30.046Z,70.85
2023-02-13T15:11:42.808Z,71.17
2023-02-13T15:16:52.546Z,70.69
2023-02-13T15:21:57.482Z,70.77
2023-02-13T15:27:03.076Z,71.16
2023-02-13T15:32:19.290Z,71.79
2023-02-13T15:37:27.218Z,71.32
2023-02-13T15:42:28.796Z,71.48
2023-02-13T15:47:32.887Z,71.55
2023-02-13T15:52:37.921Z,71.64
2023-02-13T15:57:40.778Z,72.06
2023-02-13T16:02:46.305Z,71.98
2023-02-13T16:07:47.908Z,72.29
2023-02-13T16:12:49.579Z,72.31
2023-02-13T16:17:51.545Z,72.58
2023-02-13T16:23:01.505Z,72.68
2023-02-13T16:28:14.341Z,72.83
2023-02-13T16:33:15.855Z,72.89
2023-02-13T16:38:37.477Z,72.96
2023-02-13T16:43:45.173Z,72.86
2023-02-13T16:48:48.283Z,72.79
2023-02-13T16:53:59.343Z,73.36
2023-02-13T16:59:14.387Z,73.40
2023-02-13T17:04:24.820Z,73.57
2023-02-13T17:09:26.433Z,73.01
2023-02-13T17:14:28.316Z,73.20
2023-02-13T17:19:29.820Z,73.16
2023-02-13T17:24:31.710Z,72.91
2023-02-13T17:29:33.217Z,72.27
2023-02-13T17:34:34.697Z,72.25
2023-02-13T17:39:36.184Z,72.11
2023-02-13T17:44:37.680Z,72.31
2023-02-13T17:49:39.270Z,71.83
2023-02-13T17:54:40.832Z,71.52
2023-02-13T17:59:42.686Z,71.52
2023-02-13T18:04:44.468Z,71.07
2023-02-13T18:09:46.768Z,70.82
2023-02-13T18:14:49.138Z,70.66
2023-02-13T18:19:50.946Z,70.30
2023-02-13T18:24:52.465Z,70.19
2023-02-13T18:29:55.341Z,70.11
2023-02-13T18:34:57.140Z,70.14
2023-02-13T18:39:59.409Z,69.97
2023-02-13T18:45:00.895Z,69.58
2023-02-13T18:50:02.457Z,69.42
2023-02-13T18:55:06.949Z,69.73
2023-02-13T19:00:10.025Z,69.71
2023-02-13T19:05:11.529Z,69.45
2023-02-13T19:10:14.889Z,70.11
2023-02-13T19:15:16.772Z,69.70
2023-02-13T19:20:18.374Z,69.95
2023-02-13T19:25:22.106Z,70.12
2023-02-13T19:30:23.896Z,70.50
2023-02-13T19:35:25.725Z,70.24
2023-02-13T19:40:28.109Z,70.29
2023-02-13T19:45:29.614Z,70.46
2023-02-13T19:50:31.506Z,70.70
2023-02-13T19:55:33.416Z,70.65
2023-02-13T20:00:34.928Z,70.68
2023-02-13T20:05:40.489Z,70.42
2023-02-13T20:10:45.739Z,70.27
2023-02-13T20:15:47.896Z,70.38
2023-02-13T20:20:49.809Z,70.35
2023-02-13T20:25:51.310Z,70.13
2023-02-13T20:30:53.079Z,70.02
2023-02-13T20:35:55.820Z,70.15
2023-02-13T20:40:57.826Z,70.08
2023-02-13T20:45:59.665Z,70.29
2023-02-13T20:51:03.515Z,70.27
2023-02-13T20:56:14.886Z,70.34
2023-02-13T21:01:26.392Z,70.24
2023-02-13T21:06:31.424Z,70.22
2023-02-13T21:11:34.441Z,70.42
2023-02-13T21:16:39.247Z,70.56
2023-02-13T21:21:44.105Z,70.37
2023-02-13T21:26:46.700Z,70.42
2023-02-13T21:31:48.530Z,70.55
2023-02-13T21:36:50.216Z,70.66
2023-02-13T21:41:51.814Z,70.82
2023-02-13T21:46:53.410Z,70.92
2023-02-13T21:51:55.021Z,70.78
2023-02-13T21:56:56.565Z,70.81
2023-02-13T22:01:58.837Z,71.25
2023-02-13T22:07:00.565Z,71.09
2023-02-13T22:12:04.124Z,70.90
2023-02-13T22:17:05.659Z,70.97
2023-02-13T22:22:07.398Z,71.27
2023-02-13T22:27:08.901Z,71.41
2023-02-13T22:32:10.521Z,71.22
2023-02-13T22:37:12.694Z,71.40
2023-02-13T22:42:14.454Z,71.48
2023-02-13T22:47:16.460Z,71.75
2023-02-13T22:52:17.987Z,71.75
2023-02-13T22:57:19.470Z,71.64
2023-02-13T23:02:21.044Z,71.73
2023-02-13T23:07:22.600Z,71.97
2023-02-13T23:12:36.115Z,72.08
2023-02-13T23:17:56.897Z,72.00
2023-02-13T23:22:58.469Z,71.72
2023-02-13T23:28:00.028Z,71.71
2023-02-13T23:33:01.992Z,71.97
2023-02-13T23:38:03.513Z,71.98
2023-02-13T23:43:05.009Z,71.75
2023-02-13T23:48:06.983Z,71.68
2023-02-13T23:53:08.480Z,71.95
2023-02-13T23:58:09.997Z,71.87
